sensor_id;sensor_type;location;lat;lon;timestamp;temperature;humidity
15636;DHT22;7917;50.818;6.972;2023-10-08T00:02:06;18.10;99.90
15636;DHT22;7917;50.818;6.972;2023-10-08T00:04:34;18.20;99.90
15636;DHT22;7917;50.818;6.972;2023-10-08T00:07:03;18.30;99.90
15636;DHT22;7917;50.818;6.972;2023-10-08T00:09:33;18.30;99.90
15636;DHT22;7917;50.818;6.972;2023-10-08T00:12:03;18.20;99.90
15636;DHT22;7917;50.818;6.972;2023-10-08T00:14:30;18.10;99.90
15636;DHT22;7917;50.818;6.972;2023-10-08T00:16:59;18.10;99.90
15636;DHT22;7917;50.818;6.972;2023-10-08T00:19:26;18.20;99.90
15636;DHT22;7917;50.818;6.972;2023-10-08T00:22:01;18.10;99.90
15636;DHT22;7917;50.818;6.972;2023-10-08T00:24:32;18.10;99.90
15636;DHT22;7917;50.818;6.972;2023-10-08T00:26:59;17.90;99.90
15636;DHT22;7917;50.818;6.972;2023-10-08T00:29:26;17.70;99.90
15636;DHT22;7917;50.818;6.972;2023-10-08T00:31:57;17.50;99.90
15636;DHT22;7917;50.818;6.972;2023-10-08T00:34:24;17.30;99.90
15636;DHT22;7917;50.818;6.972;2023-10-08T00:36:53;17.20;99.90
15636;DHT22;7917;50.818;6.972;2023-10-08T00:39:21;17.00;99.90
15636;DHT22;7917;50.818;6.972;2023-10-08T00:41:51;16.90;99.90
15636;DHT22;7917;50.818;6.972;2023-10-08T00:44:21;16.80;99.90
15636;DHT22;7917;50.818;6.972;2023-10-08T00:46:56;16.70;99.90
15636;DHT22;7917;50.818;6.972;2023-10-08T00:49:24;16.50;99.90
15636;DHT22;7917;50.818;6.972;2023-10-08T00:52:02;16.40;99.90
15636;DHT22;7917;50.818;6.972;2023-10-08T00:54:50;16.30;99.90
15636;DHT22;7917;50.818;6.972;2023-10-08T00:57:33;16.20;99.90
15636;DHT22;7917;50.818;6.972;2023-10-08T01:00:01;16.10;99.90
15636;DHT22;7917;50.818;6.972;2023-10-08T01:02:32;16.10;99.90
15636;DHT22;7917;50.818;6.972;2023-10-08T01:05:10;16.10;99.90
15636;DHT22;7917;50.818;6.972;2023-10-08T01:07:39;16.00;99.90
15636;DHT22;7917;50.818;6.972;2023-10-08T01:10:10;15.90;99.90
15636;DHT22;7917;50.818;6.972;2023-10-08T01:12:45;15.90;99.90
15636;DHT22;7917;50.818;6.972;2023-10-08T01:15:29;15.80;99.90
15636;DHT22;7917;50.818;6.972;2023-10-08T01:17:56;15.80;99.90
15636;DHT22;7917;50.818;6.972;2023-10-08T01:20:27;15.80;99.90
15636;DHT22;7917;50.818;6.972;2023-10-08T01:23:02;15.80;99.90
15636;DHT22;7917;50.818;6.972;2023-10-08T01:25:30;15.80;99.90
15636;DHT22;7917;50.818;6.972;2023-10-08T01:27:57;15.80;99.90
15636;DHT22;7917;50.818;6.972;2023-10-08T01:30:27;15.70;99.90
15636;DHT22;7917;50.818;6.972;2023-10-08T01:33:01;15.60;99.90
15636;DHT22;7917;50.818;6.972;2023-10-08T01:35:28;15.50;99.90
15636;DHT22;7917;50.818;6.972;2023-10-08T01:37:57;15.40;99.90
15636;DHT22;7917;50.818;6.972;2023-10-08T01:40:26;15.20;99.90
15636;DHT22;7917;50.818;6.972;2023-10-08T01:42:55;15.10;99.90
15636;DHT22;7917;50.818;6.972;2023-10-08T01:45:26;15.00;99.90
15636;DHT22;7917;50.818;6.972;2023-10-08T01:47:55;14.90;99.90
15636;DHT22;7917;50.818;6.972;2023-10-08T01:50:23;14.90;99.90
15636;DHT22;7917;50.818;6.972;2023-10-08T01:52:51;14.80;99.90
15636;DHT22;7917;50.818;6.972;2023-10-08T01:55:18;14.70;99.90
15636;DHT22;7917;50.818;6.972;2023-10-08T01:57:46;14.70;99.90
15636;DHT22;7917;50.818;6.972;2023-10-08T02:00:15;14.70;99.90
15636;DHT22;7917;50.818;6.972;2023-10-08T02:02:45;14.80;99.90
15636;DHT22;7917;50.818;6.972;2023-10-08T02:05:12;14.80;99.90
15636;DHT22;7917;50.818;6.972;2023-10-08T02:07:41;14.80;99.90
15636;DHT22;7917;50.818;6.972;2023-10-08T02:10:10;14.70;99.90
15636;DHT22;7917;50.818;6.972;2023-10-08T02:12:37;14.70;99.90
15636;DHT22;7917;50.818;6.972;2023-10-08T02:15:07;14.60;99.90
15636;DHT22;7917;50.818;6.972;2023-10-08T02:17:34;14.70;99.90
15636;DHT22;7917;50.818;6.972;2023-10-08T02:20:01;14.60;99.90
15636;DHT22;7917;50.818;6.972;2023-10-08T02:22:31;14.60;99.90
15636;DHT22;7917;50.818;6.972;2023-10-08T02:24:58;14.50;99.90
15636;DHT22;7917;50.818;6.972;2023-10-08T02:27:27;14.50;99.90
15636;DHT22;7917;50.818;6.972;2023-10-08T02:29:54;14.40;99.90
15636;DHT22;7917;50.818;6.972;2023-10-08T02:32:22;14.40;99.90
15636;DHT22;7917;50.818;6.972;2023-10-08T02:34:49;14.40;99.90
15636;DHT22;7917;50.818;6.972;2023-10-08T02:37:16;14.50;99.90
15636;DHT22;7917;50.818;6.972;2023-10-08T02:39:43;14.50;99.90
15636;DHT22;7917;50.818;6.972;2023-10-08T02:42:11;14.50;99.90
15636;DHT22;7917;50.818;6.972;2023-10-08T02:44:40;14.60;99.90
15636;DHT22;7917;50.818;6.972;2023-10-08T02:47:08;14.70;99.90
15636;DHT22;7917;50.818;6.972;2023-10-08T02:49:38;14.80;99.90
15636;DHT22;7917;50.818;6.972;2023-10-08T02:52:07;14.90;99.90
15636;DHT22;7917;50.818;6.972;2023-10-08T02:54:34;15.00;99.90
15636;DHT22;7917;50.818;6.972;2023-10-08T02:57:03;15.20;99.90
15636;DHT22;7917;50.818;6.972;2023-10-08T02:59:35;15.30;99.90
15636;DHT22;7917;50.818;6.972;2023-10-08T03:05:36;15.50;99.90
15636;DHT22;7917;50.818;6.972;2023-10-08T03:08:03;15.50;99.90
15636;DHT22;7917;50.818;6.972;2023-10-08T03:10:36;15.60;99.90
15636;DHT22;7917;50.818;6.972;2023-10-08T03:13:03;15.60;99.90
15636;DHT22;7917;50.818;6.972;2023-10-08T03:15:31;15.70;99.90
15636;DHT22;7917;50.818;6.972;2023-10-08T03:18:06;15.70;99.90
15636;DHT22;7917;50.818;6.972;2023-10-08T03:20:37;15.80;99.90
15636;DHT22;7917;50.818;6.972;2023-10-08T03:23:09;15.80;99.90
15636;DHT22;7917;50.818;6.972;2023-10-08T03:25:51;15.70;99.90
15636;DHT22;7917;50.818;6.972;2023-10-08T03:28:22;15.70;99.90
15636;DHT22;7917;50.818;6.972;2023-10-08T03:30:51;15.70;99.90
15636;DHT22;7917;50.818;6.972;2023-10-08T03:33:22;15.70;99.90
15636;DHT22;7917;50.818;6.972;2023-10-08T03:35:50;15.70;99.90
15636;DHT22;7917;50.818;6.972;2023-10-08T03:38:19;15.60;99.90
15636;DHT22;7917;50.818;6.972;2023-10-08T03:40:54;15.60;99.90
15636;DHT22;7917;50.818;6.972;2023-10-08T03:43:31;15.60;99.90
15636;DHT22;7917;50.818;6.972;2023-10-08T03:46:20;15.50;99.90
15636;DHT22;7917;50.818;6.972;2023-10-08T03:48:50;15.40;99.90
15636;DHT22;7917;50.818;6.972;2023-10-08T03:51:19;15.40;99.90
15636;DHT22;7917;50.818;6.972;2023-10-08T03:53:48;15.40;99.90
15636;DHT22;7917;50.818;6.972;2023-10-08T03:56:42;15.30;99.90
15636;DHT22;7917;50.818;6.972;2023-10-08T03:59:12;15.30;99.90
15636;DHT22;7917;50.818;6.972;2023-10-08T04:01:39;15.20;99.90
15636;DHT22;7917;50.818;6.972;2023-10-08T04:04:06;15.20;99.90
15636;DHT22;7917;50.818;6.972;2023-10-08T04:06:38;15.30;99.90
15636;DHT22;7917;50.818;6.972;2023-10-08T04:09:14;15.20;99.90
15636;DHT22;7917;50.818;6.972;2023-10-08T04:11:51;15.20;99.90
15636;DHT22;7917;50.818;6.972;2023-10-08T04:14:23;15.20;99.90
15636;DHT22;7917;50.818;6.972;2023-10-08T04:16:51;15.20;99.90
15636;DHT22;7917;50.818;6.972;2023-10-08T04:19:18;15.30;99.90
15636;DHT22;7917;50.818;6.972;2023-10-08T04:21:47;15.30;99.90
15636;DHT22;7917;50.818;6.972;2023-10-08T04:24:21;15.30;99.90
15636;DHT22;7917;50.818;6.972;2023-10-08T04:26:55;15.20;99.90
15636;DHT22;7917;50.818;6.972;2023-10-08T04:29:28;15.20;99.90
15636;DHT22;7917;50.818;6.972;2023-10-08T04:31:59;15.20;99.90
15636;DHT22;7917;50.818;6.972;2023-10-08T04:34:34;15.20;99.90
15636;DHT22;7917;50.818;6.972;2023-10-08T04:37:01;15.10;99.90
15636;DHT22;7917;50.818;6.972;2023-10-08T04:39:30;15.00;99.90
15636;DHT22;7917;50.818;6.972;2023-10-08T04:42:00;15.00;99.90
15636;DHT22;7917;50.818;6.972;2023-10-08T04:44:35;15.00;99.90
15636;DHT22;7917;50.818;6.972;2023-10-08T04:47:04;15.00;99.90
15636;DHT22;7917;50.818;6.972;2023-10-08T04:49:32;14.90;99.90
15636;DHT22;7917;50.818;6.972;2023-10-08T04:52:02;14.90;99.90
15636;DHT22;7917;50.818;6.972;2023-10-08T04:54:34;14.90;99.90
15636;DHT22;7917;50.818;6.972;2023-10-08T04:57:07;14.80;99.90
15636;DHT22;7917;50.818;6.972;2023-10-08T04:59:41;14.80;99.90
15636;DHT22;7917;50.818;6.972;2023-10-08T05:02:09;14.80;99.90
15636;DHT22;7917;50.818;6.972;2023-10-08T05:04:46;14.80;99.90
15636;DHT22;7917;50.818;6.972;2023-10-08T05:07:23;14.90;99.90
15636;DHT22;7917;50.818;6.972;2023-10-08T05:10:08;14.80;99.90
15636;DHT22;7917;50.818;6.972;2023-10-08T05:12:57;14.80;99.90
15636;DHT22;7917;50.818;6.972;2023-10-08T05:15:40;14.90;99.90
15636;DHT22;7917;50.818;6.972;2023-10-08T05:18:13;15.10;99.90
15636;DHT22;7917;50.818;6.972;2023-10-08T05:20:45;15.20;99.90
15636;DHT22;7917;50.818;6.972;2023-10-08T05:23:26;15.30;99.90
15636;DHT22;7917;50.818;6.972;2023-10-08T05:26:11;15.30;99.90
15636;DHT22;7917;50.818;6.972;2023-10-08T05:28:46;15.20;99.90
15636;DHT22;7917;50.818;6.972;2023-10-08T05:31:27;15.10;99.90
15636;DHT22;7917;50.818;6.972;2023-10-08T05:34:16;15.20;99.90
15636;DHT22;7917;50.818;6.972;2023-10-08T05:36:58;15.10;99.90
15636;DHT22;7917;50.818;6.972;2023-10-08T05:39:42;15.10;99.90
15636;DHT22;7917;50.818;6.972;2023-10-08T05:42:13;15.10;99.90
15636;DHT22;7917;50.818;6.972;2023-10-08T05:44:41;15.10;99.90
15636;DHT22;7917;50.818;6.972;2023-10-08T05:47:13;15.00;99.90
15636;DHT22;7917;50.818;6.972;2023-10-08T05:50:06;15.00;99.90
15636;DHT22;7917;50.818;6.972;2023-10-08T05:52:48;15.10;99.90
15636;DHT22;7917;50.818;6.972;2023-10-08T05:55:43;15.10;99.90
15636;DHT22;7917;50.818;6.972;2023-10-08T05:58:13;15.10;99.90
15636;DHT22;7917;50.818;6.972;2023-10-08T06:00:51;15.00;99.90
15636;DHT22;7917;50.818;6.972;2023-10-08T06:03:57;14.90;99.90
15636;DHT22;7917;50.818;6.972;2023-10-08T06:06:38;14.80;99.90
15636;DHT22;7917;50.818;6.972;2023-10-08T06:09:14;14.90;99.90
15636;DHT22;7917;50.818;6.972;2023-10-08T06:12:01;15.00;99.90
15636;DHT22;7917;50.818;6.972;2023-10-08T06:14:45;15.00;99.90
15636;DHT22;7917;50.818;6.972;2023-10-08T06:17:38;15.10;99.90
15636;DHT22;7917;50.818;6.972;2023-10-08T06:20:26;15.10;99.90
15636;DHT22;7917;50.818;6.972;2023-10-08T06:22:53;15.10;99.90
15636;DHT22;7917;50.818;6.972;2023-10-08T06:25:26;15.20;99.90
15636;DHT22;7917;50.818;6.972;2023-10-08T06:27:54;15.30;99.90
15636;DHT22;7917;50.818;6.972;2023-10-08T06:30:22;15.30;99.90
15636;DHT22;7917;50.818;6.972;2023-10-08T06:32:51;15.30;99.90
15636;DHT22;7917;50.818;6.972;2023-10-08T06:35:20;15.30;99.90
15636;DHT22;7917;50.818;6.972;2023-10-08T06:37:52;15.30;99.90
15636;DHT22;7917;50.818;6.972;2023-10-08T06:40:22;15.40;99.90
15636;DHT22;7917;50.818;6.972;2023-10-08T06:43:07;15.40;99.90
15636;DHT22;7917;50.818;6.972;2023-10-08T06:45:48;15.40;99.90
15636;DHT22;7917;50.818;6.972;2023-10-08T06:48:19;15.40;99.90
15636;DHT22;7917;50.818;6.972;2023-10-08T06:50:48;15.50;99.90
15636;DHT22;7917;50.818;6.972;2023-10-08T06:53:15;15.50;99.90
15636;DHT22;7917;50.818;6.972;2023-10-08T06:55:44;15.60;99.90
15636;DHT22;7917;50.818;6.972;2023-10-08T06:58:14;15.60;99.90
15636;DHT22;7917;50.818;6.972;2023-10-08T07:00:43;15.80;99.90
15636;DHT22;7917;50.818;6.972;2023-10-08T07:03:18;15.80;99.90
15636;DHT22;7917;50.818;6.972;2023-10-08T07:05:47;15.80;99.90
15636;DHT22;7917;50.818;6.972;2023-10-08T07:08:24;15.90;99.90
15636;DHT22;7917;50.818;6.972;2023-10-08T07:11:03;16.00;99.90
15636;DHT22;7917;50.818;6.972;2023-10-08T07:13:33;16.00;99.90
15636;DHT22;7917;50.818;6.972;2023-10-08T07:16:02;16.10;99.90
15636;DHT22;7917;50.818;6.972;2023-10-08T07:18:52;16.10;99.90
15636;DHT22;7917;50.818;6.972;2023-10-08T07:21:21;16.20;99.90
15636;DHT22;7917;50.818;6.972;2023-10-08T07:23:54;16.30;99.90
15636;DHT22;7917;50.818;6.972;2023-10-08T07:26:22;16.40;99.90
15636;DHT22;7917;50.818;6.972;2023-10-08T07:28:52;16.40;99.90
15636;DHT22;7917;50.818;6.972;2023-10-08T07:31:24;16.40;99.90
15636;DHT22;7917;50.818;6.972;2023-10-08T07:33:56;16.40;99.90
15636;DHT22;7917;50.818;6.972;2023-10-08T07:36:23;16.40;99.90
15636;DHT22;7917;50.818;6.972;2023-10-08T07:38:51;16.40;99.90
15636;DHT22;7917;50.818;6.972;2023-10-08T07:41:21;16.50;99.90
15636;DHT22;7917;50.818;6.972;2023-10-08T07:43:50;16.40;99.90
15636;DHT22;7917;50.818;6.972;2023-10-08T07:46:21;16.50;99.90
15636;DHT22;7917;50.818;6.972;2023-10-08T07:48:48;16.60;99.90
15636;DHT22;7917;50.818;6.972;2023-10-08T07:51:16;16.60;99.90
15636;DHT22;7917;50.818;6.972;2023-10-08T07:53:45;16.60;99.90
15636;DHT22;7917;50.818;6.972;2023-10-08T07:56:13;16.70;99.90
15636;DHT22;7917;50.818;6.972;2023-10-08T07:58:41;16.80;99.90
15636;DHT22;7917;50.818;6.972;2023-10-08T08:01:09;17.00;99.90
15636;DHT22;7917;50.818;6.972;2023-10-08T08:03:40;17.20;99.90
15636;DHT22;7917;50.818;6.972;2023-10-08T08:06:08;17.30;99.90
15636;DHT22;7917;50.818;6.972;2023-10-08T08:08:36;17.40;99.90
15636;DHT22;7917;50.818;6.972;2023-10-08T08:11:05;17.50;99.90
15636;DHT22;7917;50.818;6.972;2023-10-08T08:13:38;17.60;99.90
15636;DHT22;7917;50.818;6.972;2023-10-08T08:16:09;17.70;99.90
15636;DHT22;7917;50.818;6.972;2023-10-08T08:18:42;17.90;99.90
15636;DHT22;7917;50.818;6.972;2023-10-08T08:21:10;18.10;99.90
15636;DHT22;7917;50.818;6.972;2023-10-08T08:23:41;18.30;99.90
15636;DHT22;7917;50.818;6.972;2023-10-08T08:26:15;18.20;99.90
15636;DHT22;7917;50.818;6.972;2023-10-08T08:28:54;18.20;99.90
15636;DHT22;7917;50.818;6.972;2023-10-08T08:31:24;18.30;99.90
15636;DHT22;7917;50.818;6.972;2023-10-08T08:33:51;18.20;99.90
15636;DHT22;7917;50.818;6.972;2023-10-08T08:36:23;18.00;99.90
15636;DHT22;7917;50.818;6.972;2023-10-08T08:38:51;18.10;99.90
15636;DHT22;7917;50.818;6.972;2023-10-08T08:41:18;18.10;99.90
15636;DHT22;7917;50.818;6.972;2023-10-08T08:43:48;18.10;99.90
15636;DHT22;7917;50.818;6.972;2023-10-08T08:46:51;18.00;99.90
15636;DHT22;7917;50.818;6.972;2023-10-08T08:49:19;18.00;99.90
15636;DHT22;7917;50.818;6.972;2023-10-08T08:51:47;18.10;99.90
15636;DHT22;7917;50.818;6.972;2023-10-08T08:54:23;18.10;99.90
15636;DHT22;7917;50.818;6.972;2023-10-08T08:56:51;18.10;99.90
15636;DHT22;7917;50.818;6.972;2023-10-08T08:59:19;18.10;99.90
15636;DHT22;7917;50.818;6.972;2023-10-08T09:01:48;18.00;99.90
15636;DHT22;7917;50.818;6.972;2023-10-08T09:04:27;18.00;99.90
15636;DHT22;7917;50.818;6.972;2023-10-08T09:06:55;17.90;99.90
15636;DHT22;7917;50.818;6.972;2023-10-08T09:09:33;17.90;99.90
15636;DHT22;7917;50.818;6.972;2023-10-08T09:12:01;17.90;99.90
15636;DHT22;7917;50.818;6.972;2023-10-08T09:14:31;17.90;99.90
15636;DHT22;7917;50.818;6.972;2023-10-08T09:17:00;17.90;99.90
15636;DHT22;7917;50.818;6.972;2023-10-08T09:19:36;17.90;99.90
15636;DHT22;7917;50.818;6.972;2023-10-08T09:22:05;18.00;99.90
15636;DHT22;7917;50.818;6.972;2023-10-08T09:24:33;18.10;99.90
15636;DHT22;7917;50.818;6.972;2023-10-08T09:27:03;18.10;99.90
15636;DHT22;7917;50.818;6.972;2023-10-08T09:29:30;18.10;99.90
15636;DHT22;7917;50.818;6.972;2023-10-08T09:31:59;18.20;99.90
15636;DHT22;7917;50.818;6.972;2023-10-08T09:34:27;18.30;99.90
15636;DHT22;7917;50.818;6.972;2023-10-08T09:36:57;18.60;99.90
15636;DHT22;7917;50.818;6.972;2023-10-08T09:39:26;18.80;99.90
15636;DHT22;7917;50.818;6.972;2023-10-08T09:41:55;19.10;99.90
15636;DHT22;7917;50.818;6.972;2023-10-08T09:44:24;19.00;99.90
15636;DHT22;7917;50.818;6.972;2023-10-08T09:46:54;18.90;99.90
15636;DHT22;7917;50.818;6.972;2023-10-08T09:49:30;18.90;99.90
15636;DHT22;7917;50.818;6.972;2023-10-08T09:52:01;19.10;99.90
15636;DHT22;7917;50.818;6.972;2023-10-08T09:54:30;19.30;99.90
15636;DHT22;7917;50.818;6.972;2023-10-08T09:56:59;19.40;99.90
15636;DHT22;7917;50.818;6.972;2023-10-08T10:00:04;19.50;99.90
15636;DHT22;7917;50.818;6.972;2023-10-08T10:02:33;19.40;99.90
15636;DHT22;7917;50.818;6.972;2023-10-08T10:05:10;19.40;99.90
15636;DHT22;7917;50.818;6.972;2023-10-08T10:07:41;19.60;99.90
15636;DHT22;7917;50.818;6.972;2023-10-08T10:10:27;19.60;99.90
15636;DHT22;7917;50.818;6.972;2023-10-08T10:13:00;19.70;99.90
15636;DHT22;7917;50.818;6.972;2023-10-08T10:15:28;19.90;99.90
15636;DHT22;7917;50.818;6.972;2023-10-08T10:17:59;20.10;99.90
15636;DHT22;7917;50.818;6.972;2023-10-08T10:20:39;20.20;99.90
15636;DHT22;7917;50.818;6.972;2023-10-08T10:23:40;19.90;99.90
15636;DHT22;7917;50.818;6.972;2023-10-08T10:26:24;19.70;99.90
15636;DHT22;7917;50.818;6.972;2023-10-08T10:29:20;19.90;99.90
15636;DHT22;7917;50.818;6.972;2023-10-08T10:31:48;20.30;99.90
15636;DHT22;7917;50.818;6.972;2023-10-08T10:34:20;20.50;99.90
15636;DHT22;7917;50.818;6.972;2023-10-08T10:36:49;20.30;99.90
15636;DHT22;7917;50.818;6.972;2023-10-08T10:39:30;20.30;99.90
15636;DHT22;7917;50.818;6.972;2023-10-08T10:42:00;20.10;99.90
15636;DHT22;7917;50.818;6.972;2023-10-08T10:44:28;20.10;99.90
15636;DHT22;7917;50.818;6.972;2023-10-08T10:46:57;20.00;99.90
15636;DHT22;7917;50.818;6.972;2023-10-08T10:49:56;19.90;99.90
15636;DHT22;7917;50.818;6.972;2023-10-08T10:52:52;19.90;99.90
15636;DHT22;7917;50.818;6.972;2023-10-08T10:55:20;20.10;99.90
15636;DHT22;7917;50.818;6.972;2023-10-08T10:57:50;20.10;99.90
15636;DHT22;7917;50.818;6.972;2023-10-08T11:00:23;20.20;99.90
15636;DHT22;7917;50.818;6.972;2023-10-08T11:03:09;20.20;99.90
15636;DHT22;7917;50.818;6.972;2023-10-08T11:05:53;20.20;99.90
15636;DHT22;7917;50.818;6.972;2023-10-08T11:08:21;20.30;99.90
15636;DHT22;7917;50.818;6.972;2023-10-08T11:10:52;20.20;99.90
15636;DHT22;7917;50.818;6.972;2023-10-08T11:13:25;20.20;99.90
15636;DHT22;7917;50.818;6.972;2023-10-08T11:16:04;20.00;99.90
15636;DHT22;7917;50.818;6.972;2023-10-08T11:18:31;20.10;99.90
15636;DHT22;7917;50.818;6.972;2023-10-08T11:21:06;20.00;99.90
15636;DHT22;7917;50.818;6.972;2023-10-08T11:23:45;20.20;99.90
15636;DHT22;7917;50.818;6.972;2023-10-08T11:26:21;20.50;99.90
15636;DHT22;7917;50.818;6.972;2023-10-08T11:28:58;20.70;99.90
15636;DHT22;7917;50.818;6.972;2023-10-08T11:31:28;20.80;99.90
15636;DHT22;7917;50.818;6.972;2023-10-08T11:33:59;20.90;99.90
15636;DHT22;7917;50.818;6.972;2023-10-08T11:36:28;21.00;99.90
15636;DHT22;7917;50.818;6.972;2023-10-08T11:38:56;21.20;99.90
15636;DHT22;7917;50.818;6.972;2023-10-08T11:41:28;21.10;99.90
15636;DHT22;7917;50.818;6.972;2023-10-08T11:43:58;21.10;99.90
15636;DHT22;7917;50.818;6.972;2023-10-08T11:46:27;21.00;99.90
15636;DHT22;7917;50.818;6.972;2023-10-08T11:49:03;21.00;99.90
15636;DHT22;7917;50.818;6.972;2023-10-08T11:51:31;21.00;99.90
15636;DHT22;7917;50.818;6.972;2023-10-08T11:53:59;21.00;99.90
15636;DHT22;7917;50.818;6.972;2023-10-08T11:56:27;21.10;99.90
15636;DHT22;7917;50.818;6.972;2023-10-08T11:58:59;21.20;99.90
15636;DHT22;7917;50.818;6.972;2023-10-08T12:01:31;21.40;99.90
15636;DHT22;7917;50.818;6.972;2023-10-08T12:04:04;21.30;99.90
15636;DHT22;7917;50.818;6.972;2023-10-08T12:06:32;21.40;99.90
15636;DHT22;7917;50.818;6.972;2023-10-08T12:08:59;21.30;99.90
15636;DHT22;7917;50.818;6.972;2023-10-08T12:11:43;21.40;99.90
15636;DHT22;7917;50.818;6.972;2023-10-08T12:14:11;21.60;99.90
15636;DHT22;7917;50.818;6.972;2023-10-08T12:16:42;21.90;99.90
15636;DHT22;7917;50.818;6.972;2023-10-08T12:19:12;21.90;99.90
15636;DHT22;7917;50.818;6.972;2023-10-08T12:21:42;21.90;99.90
15636;DHT22;7917;50.818;6.972;2023-10-08T12:24:12;21.90;99.90
15636;DHT22;7917;50.818;6.972;2023-10-08T12:26:40;21.60;99.90
15636;DHT22;7917;50.818;6.972;2023-10-08T12:29:12;21.40;99.90
15636;DHT22;7917;50.818;6.972;2023-10-08T12:31:40;21.20;99.90
15636;DHT22;7917;50.818;6.972;2023-10-08T12:34:07;21.20;99.90
15636;DHT22;7917;50.818;6.972;2023-10-08T12:36:38;21.20;99.90
15636;DHT22;7917;50.818;6.972;2023-10-08T12:39:05;21.00;99.90
15636;DHT22;7917;50.818;6.972;2023-10-08T12:41:41;21.00;99.90
15636;DHT22;7917;50.818;6.972;2023-10-08T12:44:10;21.00;99.90
15636;DHT22;7917;50.818;6.972;2023-10-08T12:46:38;21.00;99.90
15636;DHT22;7917;50.818;6.972;2023-10-08T12:49:05;20.90;99.90
15636;DHT22;7917;50.818;6.972;2023-10-08T12:51:33;20.80;99.90
15636;DHT22;7917;50.818;6.972;2023-10-08T12:54:04;20.90;99.90
15636;DHT22;7917;50.818;6.972;2023-10-08T12:56:33;20.80;99.90
15636;DHT22;7917;50.818;6.972;2023-10-08T12:59:06;20.80;99.90
15636;DHT22;7917;50.818;6.972;2023-10-08T13:01:33;20.80;99.90
15636;DHT22;7917;50.818;6.972;2023-10-08T13:04:02;20.60;99.90
15636;DHT22;7917;50.818;6.972;2023-10-08T13:06:34;20.50;99.90
15636;DHT22;7917;50.818;6.972;2023-10-08T13:09:04;20.40;99.90
15636;DHT22;7917;50.818;6.972;2023-10-08T13:11:38;20.40;99.90
15636;DHT22;7917;50.818;6.972;2023-10-08T13:14:07;20.50;99.90
15636;DHT22;7917;50.818;6.972;2023-10-08T13:16:34;20.50;99.90
15636;DHT22;7917;50.818;6.972;2023-10-08T13:19:04;20.50;99.90
15636;DHT22;7917;50.818;6.972;2023-10-08T13:21:35;20.80;99.90
15636;DHT22;7917;50.818;6.972;2023-10-08T13:24:03;20.80;99.90
15636;DHT22;7917;50.818;6.972;2023-10-08T13:26:35;20.80;99.90
15636;DHT22;7917;50.818;6.972;2023-10-08T13:29:04;20.80;99.90
15636;DHT22;7917;50.818;6.972;2023-10-08T13:31:32;20.60;99.90
15636;DHT22;7917;50.818;6.972;2023-10-08T13:34:04;20.70;99.90
15636;DHT22;7917;50.818;6.972;2023-10-08T13:36:34;20.60;99.90
15636;DHT22;7917;50.818;6.972;2023-10-08T13:39:04;20.60;99.90
15636;DHT22;7917;50.818;6.972;2023-10-08T13:41:35;20.60;99.90
15636;DHT22;7917;50.818;6.972;2023-10-08T13:44:05;20.40;99.90
15636;DHT22;7917;50.818;6.972;2023-10-08T13:46:34;20.40;99.90
15636;DHT22;7917;50.818;6.972;2023-10-08T13:49:03;20.40;99.90
15636;DHT22;7917;50.818;6.972;2023-10-08T13:51:32;20.40;99.90
15636;DHT22;7917;50.818;6.972;2023-10-08T13:54:02;20.40;99.90
15636;DHT22;7917;50.818;6.972;2023-10-08T13:56:33;20.40;99.90
15636;DHT22;7917;50.818;6.972;2023-10-08T13:59:04;20.30;99.90
15636;DHT22;7917;50.818;6.972;2023-10-08T14:01:40;20.30;99.90
15636;DHT22;7917;50.818;6.972;2023-10-08T14:04:10;20.20;99.90
15636;DHT22;7917;50.818;6.972;2023-10-08T14:06:38;20.30;99.90
15636;DHT22;7917;50.818;6.972;2023-10-08T14:09:07;20.30;99.90
15636;DHT22;7917;50.818;6.972;2023-10-08T14:11:35;20.40;99.90
15636;DHT22;7917;50.818;6.972;2023-10-08T14:14:03;20.50;99.90
15636;DHT22;7917;50.818;6.972;2023-10-08T14:16:34;20.70;99.90
15636;DHT22;7917;50.818;6.972;2023-10-08T14:19:03;20.80;99.90
15636;DHT22;7917;50.818;6.972;2023-10-08T14:21:31;21.00;99.90
15636;DHT22;7917;50.818;6.972;2023-10-08T14:24:05;20.70;99.90
15636;DHT22;7917;50.818;6.972;2023-10-08T14:26:41;20.60;99.90
15636;DHT22;7917;50.818;6.972;2023-10-08T14:29:09;20.50;99.90
15636;DHT22;7917;50.818;6.972;2023-10-08T14:31:40;20.40;99.90
15636;DHT22;7917;50.818;6.972;2023-10-08T14:34:11;20.20;99.90
15636;DHT22;7917;50.818;6.972;2023-10-08T14:36:55;20.00;99.90
15636;DHT22;7917;50.818;6.972;2023-10-08T14:39:40;20.00;99.90
15636;DHT22;7917;50.818;6.972;2023-10-08T14:42:26;20.00;99.90
15636;DHT22;7917;50.818;6.972;2023-10-08T14:45:12;19.90;99.90
15636;DHT22;7917;50.818;6.972;2023-10-08T14:47:45;19.80;99.90
15636;DHT22;7917;50.818;6.972;2023-10-08T14:50:14;19.60;99.90
15636;DHT22;7917;50.818;6.972;2023-10-08T14:52:43;19.60;99.90
15636;DHT22;7917;50.818;6.972;2023-10-08T14:55:13;19.60;99.90
15636;DHT22;7917;50.818;6.972;2023-10-08T14:57:42;19.50;99.90
15636;DHT22;7917;50.818;6.972;2023-10-08T15:00:10;19.60;99.90
15636;DHT22;7917;50.818;6.972;2023-10-08T15:02:37;19.60;99.90
15636;DHT22;7917;50.818;6.972;2023-10-08T15:05:05;19.60;99.90
15636;DHT22;7917;50.818;6.972;2023-10-08T15:07:34;19.60;99.90
15636;DHT22;7917;50.818;6.972;2023-10-08T15:10:03;19.60;99.90
15636;DHT22;7917;50.818;6.972;2023-10-08T15:12:30;19.70;99.90
15636;DHT22;7917;50.818;6.972;2023-10-08T15:15:01;19.80;99.90
15636;DHT22;7917;50.818;6.972;2023-10-08T15:17:39;19.80;99.90
15636;DHT22;7917;50.818;6.972;2023-10-08T15:20:08;19.80;99.90
15636;DHT22;7917;50.818;6.972;2023-10-08T15:22:36;19.80;99.90
15636;DHT22;7917;50.818;6.972;2023-10-08T15:25:04;19.80;99.90
15636;DHT22;7917;50.818;6.972;2023-10-08T15:27:31;19.80;99.90
15636;DHT22;7917;50.818;6.972;2023-10-08T15:30:00;19.90;99.90
15636;DHT22;7917;50.818;6.972;2023-10-08T15:32:29;20.00;99.90
15636;DHT22;7917;50.818;6.972;2023-10-08T15:34:58;20.00;99.90
15636;DHT22;7917;50.818;6.972;2023-10-08T15:37:27;20.00;99.90
15636;DHT22;7917;50.818;6.972;2023-10-08T15:39:55;20.00;99.90
15636;DHT22;7917;50.818;6.972;2023-10-08T15:42:23;19.90;99.90
15636;DHT22;7917;50.818;6.972;2023-10-08T15:44:51;19.80;99.90
15636;DHT22;7917;50.818;6.972;2023-10-08T15:47:19;19.80;99.90
15636;DHT22;7917;50.818;6.972;2023-10-08T15:49:47;19.60;99.90
15636;DHT22;7917;50.818;6.972;2023-10-08T15:52:15;19.50;99.90
15636;DHT22;7917;50.818;6.972;2023-10-08T15:54:43;19.50;99.90
15636;DHT22;7917;50.818;6.972;2023-10-08T15:57:11;19.40;99.90
15636;DHT22;7917;50.818;6.972;2023-10-08T15:59:39;19.40;99.90
15636;DHT22;7917;50.818;6.972;2023-10-08T16:02:06;19.30;99.90
15636;DHT22;7917;50.818;6.972;2023-10-08T16:04:34;19.20;99.90
15636;DHT22;7917;50.818;6.972;2023-10-08T16:07:01;19.20;99.90
15636;DHT22;7917;50.818;6.972;2023-10-08T16:09:29;19.10;99.90
15636;DHT22;7917;50.818;6.972;2023-10-08T16:11:57;19.00;99.90
15636;DHT22;7917;50.818;6.972;2023-10-08T16:14:26;18.90;99.90
15636;DHT22;7917;50.818;6.972;2023-10-08T16:16:53;18.80;99.90
15636;DHT22;7917;50.818;6.972;2023-10-08T16:19:21;18.60;99.90